createdAt,value
2022-11-28T00:01:23.459Z,100620.41
2022-11-28T00:03:50.057Z,100627.47
2022-11-28T00:06:16.957Z,100619.63
2022-11-28T00:08:44.277Z,100617.91
2022-11-28T00:11:13.968Z,100624.03
2022-11-28T00:13:40.921Z,100619.66
2022-11-28T00:16:08.826Z,100617.94
2022-11-28T00:18:35.830Z,100607.47
2022-11-28T00:21:06.683Z,100597.88
2022-11-28T00:23:34.030Z,100601.41
2022-11-28T00:26:03.634Z,100607.47
2022-11-28T00:28:30.378Z,100593.44
2022-11-28T00:30:56.976Z,100616.25
2022-11-28T00:33:24.057Z,100596.16
2022-11-28T00:35:50.613Z,100599.56
2022-11-28T00:38:17.373Z,100587.25
2022-11-28T00:40:43.889Z,100573.19
2022-11-28T00:43:11.680Z,100562.66
2022-11-28T00:45:38.326Z,100541.56
2022-11-28T00:48:06.764Z,100537.13
2022-11-28T00:50:33.320Z,100546.72
2022-11-28T00:53:00.225Z,100530.88
2022-11-28T00:55:27.282Z,100531.78
2022-11-28T00:57:55.248Z,100533.50
2022-11-28T01:00:22.188Z,100534.31
2022-11-28T01:02:48.807Z,100522.03
2022-11-28T01:05:15.497Z,100528.09
2022-11-28T01:07:42.631Z,100525.44
2022-11-28T01:10:11.696Z,100518.41
2022-11-28T01:12:38.389Z,100516.59
2022-11-28T01:15:07.969Z,100521.88
2022-11-28T01:17:34.444Z,100519.22
2022-11-28T01:20:01.185Z,100512.25
2022-11-28T01:22:28.147Z,100506.09
2022-11-28T01:24:54.722Z,100517.47
2022-11-28T01:27:21.271Z,100505.16
2022-11-28T01:29:48.828Z,100509.59
2022-11-28T01:32:15.500Z,100500.84
2022-11-28T01:34:42.266Z,100500.78
2022-11-28T01:37:09.035Z,100502.50
2022-11-28T01:39:35.583Z,100497.22
2022-11-28T01:42:02.202Z,100522.66
2022-11-28T01:44:29.179Z,100530.53
2022-11-28T01:46:56.309Z,100514.84
2022-11-28T01:49:28.676Z,100499.91
2022-11-28T01:52:01.188Z,100490.34
2022-11-28T01:54:30.043Z,100496.50
2022-11-28T01:57:00.460Z,100467.59
2022-11-28T01:59:31.318Z,100469.31
2022-11-28T02:01:57.908Z,100469.31
2022-11-28T02:04:27.978Z,100461.34
2022-11-28T02:06:55.477Z,100455.16
2022-11-28T02:09:22.000Z,100460.34
2022-11-28T02:12:11.654Z,100464.66
2022-11-28T02:15:02.910Z,100453.22
2022-11-28T02:17:56.466Z,100428.66
2022-11-28T02:20:44.708Z,100439.16
2022-11-28T02:23:20.042Z,100441.75
2022-11-28T02:25:49.176Z,100440.88
2022-11-28T02:28:40.114Z,100437.41
2022-11-28T02:31:33.604Z,100449.59
2022-11-28T02:34:08.934Z,100446.84
2022-11-28T02:36:44.974Z,100444.16
2022-11-28T02:39:31.668Z,100437.09
2022-11-28T02:42:12.165Z,100447.53
2022-11-28T02:44:45.800Z,100446.66
2022-11-28T02:47:21.353Z,100452.88
2022-11-28T02:49:56.102Z,100437.16
2022-11-28T02:52:29.553Z,100427.56
2022-11-28T02:54:57.150Z,100426.72
2022-11-28T02:57:29.313Z,100417.09
2022-11-28T02:59:55.843Z,100425.00
2022-11-28T03:02:30.268Z,100422.34
2022-11-28T03:05:05.942Z,100437.22
2022-11-28T03:07:57.453Z,100408.31
2022-11-28T03:10:51.125Z,100396.13
2022-11-28T03:13:56.447Z,100385.63
2022-11-28T03:16:34.447Z,100378.50
2022-11-28T03:19:11.562Z,100364.44
2022-11-28T03:22:09.102Z,100352.06
2022-11-28T03:24:47.098Z,100367.75
2022-11-28T03:27:33.857Z,100378.22
2022-11-28T03:30:06.967Z,100381.63
2022-11-28T03:32:36.790Z,100380.72
2022-11-28T03:35:07.493Z,100407.00
2022-11-28T03:37:39.630Z,100435.00
2022-11-28T03:40:12.708Z,100420.16
2022-11-28T03:42:44.225Z,100421.03
2022-11-28T03:45:25.196Z,100418.47
2022-11-28T03:47:58.677Z,100419.38
2022-11-28T03:50:49.865Z,100423.78
2022-11-28T03:53:20.856Z,100404.56
2022-11-28T03:55:59.935Z,100405.44
2022-11-28T03:58:54.102Z,100404.59
2022-11-28T04:02:10.504Z,100403.75
2022-11-28T04:04:50.814Z,100392.34
2022-11-28T04:07:32.272Z,100410.78
2022-11-28T04:10:14.821Z,100405.59
2022-11-28T04:12:59.933Z,100403.94
2022-11-28T04:15:37.931Z,100397.84
2022-11-28T04:18:33.628Z,100391.78
2022-11-28T04:21:35.713Z,100371.63
2022-11-28T04:24:25.500Z,100369.00
2022-11-28T04:26:58.474Z,100365.50
2022-11-28T04:29:28.526Z,100361.97
2022-11-28T04:31:59.656Z,100359.38
2022-11-28T04:34:28.645Z,100361.97
2022-11-28T04:36:58.685Z,100349.69
2022-11-28T04:39:27.643Z,100346.97
2022-11-28T04:41:58.515Z,100344.28
2022-11-28T04:44:49.035Z,100340.69
2022-11-28T04:47:16.005Z,100343.22
2022-11-28T04:49:42.671Z,100334.38
2022-11-28T04:52:23.141Z,100328.13
2022-11-28T04:54:58.641Z,100328.94
2022-11-28T04:57:35.322Z,100326.25
2022-11-28T05:00:05.670Z,100330.59
2022-11-28T05:02:33.292Z,100326.19
2022-11-28T05:05:00.173Z,100328.81
2022-11-28T05:07:26.845Z,100320.88
2022-11-28T05:09:55.614Z,100312.97
2022-11-28T05:12:22.143Z,100318.22
2022-11-28T05:14:48.628Z,100312.13
2022-11-28T05:17:15.141Z,100312.13
2022-11-28T05:19:41.643Z,100295.44
2022-11-28T05:22:11.627Z,100302.44
2022-11-28T05:24:38.109Z,100293.63
2022-11-28T05:27:04.888Z,100295.28
2022-11-28T05:29:31.474Z,100291.72
2022-11-28T05:31:58.002Z,100312.72
2022-11-28T05:34:24.698Z,100304.84
2022-11-28T05:36:51.259Z,100306.59
2022-11-28T05:39:17.750Z,100301.31
2022-11-28T05:41:44.334Z,100309.16
2022-11-28T05:44:10.843Z,100308.28
2022-11-28T05:46:37.742Z,100307.44
2022-11-28T05:49:04.315Z,100306.56
2022-11-28T05:51:30.860Z,100312.72
2022-11-28T05:53:57.440Z,100301.34
2022-11-28T05:56:24.266Z,100298.75
2022-11-28T05:58:51.962Z,100299.66
2022-11-28T06:01:24.319Z,100286.56
2022-11-28T06:03:52.148Z,100291.81
2022-11-28T06:06:21.299Z,100285.72
2022-11-28T06:08:49.770Z,100289.19
2022-11-28T06:11:17.052Z,100291.81
2022-11-28T06:13:44.908Z,100297.03
2022-11-28T06:16:14.187Z,100297.84
2022-11-28T06:18:41.033Z,100292.59
2022-11-28T06:21:09.830Z,100286.53
2022-11-28T06:23:36.887Z,100280.38
2022-11-28T06:26:11.715Z,100276.91
2022-11-28T06:28:39.438Z,100286.53
2022-11-28T06:31:14.534Z,100288.28
2022-11-28T06:33:41.413Z,100295.28
2022-11-28T06:36:09.429Z,100294.41
2022-11-28T06:38:36.055Z,100297.91
2022-11-28T06:41:05.967Z,100296.16
2022-11-28T06:43:32.614Z,100295.31
2022-11-28T06:45:59.296Z,100293.59
2022-11-28T06:48:26.429Z,100297.94
2022-11-28T06:50:53.684Z,100290.13
2022-11-28T06:53:20.224Z,100291.88
2022-11-28T06:55:46.905Z,100292.78
2022-11-28T06:58:13.573Z,100301.53
2022-11-28T07:00:40.168Z,100319.97
2022-11-28T07:03:06.854Z,100320.00
2022-11-28T07:05:33.476Z,100326.19
2022-11-28T07:08:00.656Z,100327.09
2022-11-28T07:10:28.525Z,100322.78
2022-11-28T07:12:56.617Z,100316.81
2022-11-28T07:15:24.174Z,100320.41
2022-11-28T07:17:50.770Z,100321.41
2022-11-28T07:20:17.633Z,100323.19
2022-11-28T07:22:46.874Z,100333.69
2022-11-28T07:25:14.895Z,100338.94
2022-11-28T07:27:42.722Z,100350.34
2022-11-28T07:30:10.693Z,100353.00
2022-11-28T07:32:40.458Z,100361.81
2022-11-28T07:35:08.892Z,100368.94
2022-11-28T07:37:36.400Z,100363.75
2022-11-28T07:40:04.275Z,100357.72
2022-11-28T07:42:30.855Z,100355.16
2022-11-28T07:45:04.203Z,100351.78
2022-11-28T07:47:31.265Z,100364.13
2022-11-28T07:49:57.837Z,100365.09
2022-11-28T07:52:24.397Z,100357.22
2022-11-28T07:54:50.892Z,100366.09
2022-11-28T07:57:17.754Z,100359.19
2022-11-28T07:59:44.758Z,100360.22
2022-11-28T08:02:12.412Z,100355.09
2022-11-28T08:04:44.013Z,100356.94
2022-11-28T08:07:14.453Z,100343.06
2022-11-28T08:09:41.262Z,100355.44
2022-11-28T08:12:07.953Z,100353.78
2022-11-28T08:14:34.716Z,100347.75
2022-11-28T08:17:01.384Z,100346.94
2022-11-28T08:19:31.942Z,100352.25
2022-11-28T08:22:00.433Z,100349.72
2022-11-28T08:24:27.265Z,100352.41
2022-11-28T08:26:53.873Z,100359.50
2022-11-28T08:29:23.454Z,100354.34
2022-11-28T08:31:50.004Z,100351.81
2022-11-28T08:34:16.606Z,100357.28
2022-11-28T08:36:43.496Z,100346.81
2022-11-28T08:39:27.025Z,100334.56
2022-11-28T08:41:57.401Z,100325.88
2022-11-28T08:44:24.391Z,100322.38
2022-11-28T08:46:52.372Z,100344.28
2022-11-28T08:49:19.045Z,100335.53
2022-11-28T08:51:45.831Z,100348.72
2022-11-28T08:54:12.461Z,100337.28
2022-11-28T08:56:39.007Z,100331.13
2022-11-28T08:59:07.091Z,100332.91
2022-11-28T09:01:34.443Z,100329.41
2022-11-28T09:04:01.187Z,100329.47
2022-11-28T09:06:27.778Z,100338.22
2022-11-28T09:08:54.416Z,100340.03
2022-11-28T09:11:22.876Z,100344.44
2022-11-28T09:13:50.062Z,100341.88
2022-11-28T09:16:17.317Z,100337.47
2022-11-28T09:18:43.971Z,100345.44
2022-11-28T09:21:12.807Z,100334.91
2022-11-28T09:23:41.350Z,100335.81
2022-11-28T09:26:26.513Z,100338.44
2022-11-28T09:28:53.599Z,100340.25
2022-11-28T09:31:20.529Z,100344.59
2022-11-28T09:33:49.404Z,100340.22
2022-11-28T09:36:19.404Z,100347.25
2022-11-28T09:38:46.689Z,100349.06
2022-11-28T09:41:28.481Z,100351.69
2022-11-28T09:44:16.520Z,100354.38
2022-11-28T09:46:45.000Z,100345.66
2022-11-28T09:49:44.613Z,100338.63
2022-11-28T09:52:17.450Z,100336.94
2022-11-28T09:55:11.192Z,100342.28
2022-11-28T09:57:43.508Z,100338.78
2022-11-28T10:00:16.991Z,100347.53
2022-11-28T10:02:55.999Z,100337.88
2022-11-28T10:05:43.899Z,100337.97
2022-11-28T10:08:36.685Z,100342.38
2022-11-28T10:11:06.179Z,100339.81
2022-11-28T10:14:07.782Z,100344.22
2022-11-28T10:17:00.945Z,100347.84
2022-11-28T10:19:53.773Z,100349.69
2022-11-28T10:22:47.133Z,100346.31
2022-11-28T10:25:23.753Z,100343.81
2022-11-28T10:27:50.817Z,100336.03
2022-11-28T10:30:30.656Z,100332.66
2022-11-28T10:33:23.041Z,100338.91
2022-11-28T10:35:58.700Z,100321.44
2022-11-28T10:38:27.836Z,100327.75
2022-11-28T10:41:15.999Z,100321.75
2022-11-28T10:43:48.770Z,100305.16
2022-11-28T10:46:28.141Z,100299.06
2022-11-28T10:48:59.695Z,100307.97
2022-11-28T10:51:34.215Z,100301.81
2022-11-28T10:54:20.039Z,100297.50
2022-11-28T10:57:04.114Z,100306.34
2022-11-28T10:59:42.813Z,100297.66
2022-11-28T11:02:46.398Z,100296.00
2022-11-28T11:05:25.965Z,100307.50
2022-11-28T11:07:58.603Z,100298.84
2022-11-28T11:10:51.546Z,100294.53
2022-11-28T11:13:23.594Z,100300.69
2022-11-28T11:15:59.206Z,100292.78
2022-11-28T11:18:32.754Z,100291.94
2022-11-28T11:21:27.480Z,100298.06
2022-11-28T11:24:17.180Z,100300.69
2022-11-28T11:26:47.081Z,100298.97
2022-11-28T11:29:30.499Z,100302.53
2022-11-28T11:32:03.486Z,100302.63
2022-11-28T11:34:36.602Z,100293.00
2022-11-28T11:37:21.739Z,100299.22
2022-11-28T11:39:52.997Z,100306.34
2022-11-28T11:42:22.758Z,100303.72
2022-11-28T11:44:50.434Z,100302.91
2022-11-28T11:47:17.689Z,100300.28
2022-11-28T11:49:50.175Z,100288.81
2022-11-28T11:52:27.532Z,100289.72
2022-11-28T11:54:57.098Z,100289.75
2022-11-28T11:57:33.089Z,100288.00
2022-11-28T12:00:07.104Z,100278.38
2022-11-28T12:02:56.378Z,100281.91
2022-11-28T12:05:58.979Z,100282.78
2022-11-28T12:08:36.941Z,100283.69
2022-11-28T12:11:25.146Z,100280.22
2022-11-28T12:13:52.847Z,100275.81
2022-11-28T12:17:00.459Z,100281.16
2022-11-28T12:19:48.152Z,100282.06
2022-11-28T12:22:26.758Z,100274.97
2022-11-28T12:25:19.060Z,100279.38
2022-11-28T12:27:48.461Z,100278.53
2022-11-28T12:30:50.573Z,100277.63
2022-11-28T12:33:23.453Z,100280.25
2022-11-28T12:36:10.386Z,100277.63
2022-11-28T12:39:03.814Z,100274.97
2022-11-28T12:42:01.566Z,100283.78
2022-11-28T12:44:51.609Z,100285.56
2022-11-28T12:47:35.892Z,100275.00
2022-11-28T12:50:23.856Z,100276.72
2022-11-28T12:53:06.404Z,100268.78
2022-11-28T12:56:03.040Z,100268.78
2022-11-28T12:58:45.316Z,100265.31
2022-11-28T13:01:56.860Z,100274.09
2022-11-28T13:04:45.699Z,100274.09
2022-11-28T13:07:33.690Z,100278.53
2022-11-28T13:10:12.931Z,100271.50
2022-11-28T13:13:19.706Z,100272.34
2022-11-28T13:15:49.230Z,100265.31
2022-11-28T13:18:40.531Z,100271.50
2022-11-28T13:21:23.458Z,100274.13
2022-11-28T13:24:05.336Z,100266.13
2022-11-28T13:26:58.981Z,100271.41
2022-11-28T13:29:56.614Z,100277.50
2022-11-28T13:32:45.938Z,100279.28
2022-11-28T13:35:15.038Z,100269.59
2022-11-28T13:40:58.396Z,100274.88
2022-11-28T13:43:49.522Z,100265.19
2022-11-28T13:46:16.282Z,100277.47
2022-11-28T13:51:33.541Z,100278.31
2022-11-28T13:54:21.647Z,100280.03
2022-11-28T13:57:05.463Z,100273.88
2022-11-28T13:59:33.606Z,100281.78
2022-11-28T14:02:03.446Z,100279.97
2022-11-28T14:04:32.908Z,100284.31
2022-11-28T14:07:06.571Z,100278.94
2022-11-28T14:10:04.411Z,100289.44
2022-11-28T14:13:03.680Z,100302.56
2022-11-28T14:16:01.488Z,100298.09
2022-11-28T14:18:58.228Z,100317.41
2022-11-28T14:21:30.162Z,100312.13
2022-11-28T14:24:25.314Z,100317.34
2022-11-28T14:27:02.345Z,100312.94
2022-11-28T14:29:36.551Z,100313.78
2022-11-28T14:32:29.173Z,100308.47
2022-11-28T14:34:51.068Z,100315.47
2022-11-28T14:37:21.713Z,100307.50
2022-11-28T14:39:50.795Z,100306.59
2022-11-28T14:42:43.854Z,100303.03
2022-11-28T14:45:50.810Z,100309.09
2022-11-28T14:48:23.557Z,100312.53
2022-11-28T14:51:00.630Z,100309.81
2022-11-28T14:53:44.353Z,100307.13
2022-11-28T14:56:27.859Z,100307.97
2022-11-28T14:59:01.782Z,100314.97
2022-11-28T15:01:49.661Z,100310.53
2022-11-28T15:04:37.611Z,100307.03
2022-11-28T15:07:11.975Z,100308.72
2022-11-28T15:09:47.355Z,100310.47
2022-11-28T15:12:26.954Z,100313.88
2022-11-28T15:14:57.785Z,100318.22
2022-11-28T15:17:33.461Z,100319.94
2022-11-28T15:20:09.793Z,100313.72
2022-11-28T15:22:43.443Z,100313.63
2022-11-28T15:25:25.747Z,100308.25
2022-11-28T15:27:53.181Z,100315.25
2022-11-28T15:30:26.667Z,100309.06
2022-11-28T15:33:00.350Z,100308.13
2022-11-28T15:35:28.458Z,100311.63
2022-11-28T15:37:58.237Z,100308.09
2022-11-28T15:40:29.219Z,100311.59
2022-11-28T15:42:56.010Z,100315.06
2022-11-28T15:45:30.093Z,100304.50
2022-11-28T15:47:57.423Z,100311.44
2022-11-28T15:50:29.395Z,100310.50
2022-11-28T15:52:56.091Z,100317.47
2022-11-28T15:55:23.171Z,100311.28
2022-11-28T15:57:49.736Z,100318.28
2022-11-28T16:00:18.884Z,100315.59
2022-11-28T16:02:46.790Z,100319.03
2022-11-28T16:05:23.366Z,100319.00
2022-11-28T16:07:51.656Z,100314.63
2022-11-28T16:10:26.980Z,100316.34
2022-11-28T16:13:11.428Z,100312.81
2022-11-28T16:15:38.743Z,100316.28
2022-11-28T16:18:07.065Z,100309.22
2022-11-28T16:20:35.849Z,100312.69
2022-11-28T16:23:09.785Z,100317.09
2022-11-28T16:25:36.924Z,100316.19
2022-11-28T16:28:04.489Z,100323.22
2022-11-28T16:30:41.984Z,100323.22
2022-11-28T16:33:43.847Z,100318.84
2022-11-28T16:36:37.108Z,100315.28
2022-11-28T16:39:06.178Z,100315.25
2022-11-28T16:41:33.224Z,100311.66
2022-11-28T16:44:04.013Z,100323.03
2022-11-28T16:46:40.081Z,100323.88
2022-11-28T16:49:16.422Z,100322.97
2022-11-28T16:51:42.926Z,100315.88
2022-11-28T16:54:27.595Z,100312.28
2022-11-28T16:57:08.923Z,100319.25
2022-11-28T16:59:36.313Z,100313.94
2022-11-28T17:02:03.297Z,100315.63
2022-11-28T17:04:31.027Z,100322.59
2022-11-28T17:07:05.016Z,100318.19
2022-11-28T17:09:33.802Z,100313.72
2022-11-28T17:12:28.885Z,100320.69
2022-11-28T17:14:56.445Z,100318.00
2022-11-28T17:17:23.973Z,100320.56
2022-11-28T17:19:51.636Z,100316.13
2022-11-28T17:22:24.230Z,100310.75
2022-11-28T17:24:54.309Z,100317.69
2022-11-28T17:27:20.909Z,100316.75
2022-11-28T17:29:47.631Z,100320.25
2022-11-28T17:32:16.566Z,100321.94
2022-11-28T17:34:46.607Z,100326.34
2022-11-28T17:37:14.020Z,100325.41
2022-11-28T17:40:00.649Z,100321.03
2022-11-28T17:42:27.338Z,100329.81
2022-11-28T17:44:53.991Z,100330.59
2022-11-28T17:47:20.502Z,100339.38
2022-11-28T17:49:47.809Z,100339.31
2022-11-28T17:52:15.774Z,100340.19
2022-11-28T17:54:42.567Z,100338.50
2022-11-28T17:57:09.371Z,100338.50
2022-11-28T17:59:37.557Z,100340.28
2022-11-28T18:02:05.652Z,100348.19
2022-11-28T18:04:34.951Z,100346.38
2022-11-28T18:07:01.797Z,100342.84
2022-11-28T18:09:29.347Z,100348.97
2022-11-28T18:11:56.067Z,100346.22
2022-11-28T18:14:22.797Z,100341.81
2022-11-28T18:16:49.627Z,100346.16
2022-11-28T18:19:16.330Z,100345.19
2022-11-28T18:21:43.599Z,100353.03
2022-11-28T18:24:10.216Z,100347.75
2022-11-28T18:26:37.796Z,100353.00
2022-11-28T18:29:06.998Z,100360.84
2022-11-28T18:31:34.704Z,100362.53
2022-11-28T18:34:03.994Z,100366.94
2022-11-28T18:36:36.910Z,100366.03
2022-11-28T18:39:09.129Z,100359.03
2022-11-28T18:41:36.140Z,100366.03
2022-11-28T18:44:05.356Z,100368.69
2022-11-28T18:46:33.514Z,100369.59
2022-11-28T18:49:01.620Z,100370.56
2022-11-28T18:51:34.214Z,100366.22
2022-11-28T18:54:04.392Z,100367.22
2022-11-28T18:56:32.277Z,100361.16
2022-11-28T18:58:59.127Z,100355.00
2022-11-28T19:01:31.551Z,100360.25
2022-11-28T19:04:04.289Z,100362.00
2022-11-28T19:06:31.746Z,100363.81
2022-11-28T19:09:04.483Z,100356.84
2022-11-28T19:11:31.822Z,100356.00
2022-11-28T19:13:59.205Z,100369.22
2022-11-28T19:16:29.144Z,100366.63
2022-11-28T19:18:55.886Z,100363.09
2022-11-28T19:21:25.326Z,100371.00
2022-11-28T19:23:54.985Z,100364.81
2022-11-28T19:26:23.960Z,100364.81
2022-11-28T19:28:50.939Z,100377.88
2022-11-28T19:31:23.033Z,100386.59
2022-11-28T19:34:01.217Z,100383.16
2022-11-28T19:36:33.067Z,100376.13
2022-11-28T19:39:00.387Z,100370.94
2022-11-28T19:41:28.092Z,100375.34
2022-11-28T19:43:55.667Z,100376.31
2022-11-28T19:46:22.443Z,100379.03
2022-11-28T19:48:51.305Z,100380.78
2022-11-28T19:51:19.305Z,100383.47
2022-11-28T19:53:46.347Z,100385.34
2022-11-28T19:56:17.363Z,100383.56
2022-11-28T19:58:44.790Z,100390.59
2022-11-28T20:01:18.382Z,100387.03
2022-11-28T20:03:47.788Z,100385.28
2022-11-28T20:06:21.287Z,100383.47
2022-11-28T20:08:48.942Z,100381.75
2022-11-28T20:11:19.003Z,100383.47
2022-11-28T20:13:46.120Z,100387.00
2022-11-28T20:16:15.452Z,100394.00
2022-11-28T20:18:44.207Z,100396.69
2022-11-28T20:21:16.301Z,100409.88
2022-11-28T20:23:45.649Z,100406.38
2022-11-28T20:26:13.988Z,100408.19
2022-11-28T20:28:42.431Z,100407.31
2022-11-28T20:31:30.661Z,100411.69
2022-11-28T20:33:58.622Z,100407.31
2022-11-28T20:36:26.937Z,100410.84
2022-11-28T20:38:54.848Z,100412.59
2022-11-28T20:41:23.561Z,100414.34
2022-11-28T20:43:51.050Z,100407.31
2022-11-28T20:46:20.181Z,100415.19
2022-11-28T20:48:46.890Z,100417.84
2022-11-28T20:51:19.825Z,100417.84
2022-11-28T20:53:46.955Z,100413.50
2022-11-28T20:56:16.199Z,100418.75
2022-11-28T20:58:44.375Z,100407.31
2022-11-28T21:01:19.651Z,100411.66
2022-11-28T21:03:46.531Z,100417.75
2022-11-28T21:06:13.210Z,100416.84
2022-11-28T21:08:40.230Z,100409.78
2022-11-28T21:11:09.344Z,100415.91
2022-11-28T21:13:36.126Z,100410.63
2022-11-28T21:16:07.592Z,100411.44
2022-11-28T21:18:35.912Z,100406.16
2022-11-28T21:21:14.241Z,100411.44
2022-11-28T21:23:41.589Z,100409.69
2022-11-28T21:26:19.952Z,100407.97
2022-11-28T21:28:48.889Z,100413.25
2022-11-28T21:31:21.404Z,100412.38
2022-11-28T21:33:49.514Z,100415.91
2022-11-28T21:36:16.454Z,100412.41
2022-11-28T21:38:43.231Z,100409.78
2022-11-28T21:41:10.233Z,100411.59
2022-11-28T21:43:36.998Z,100410.69
2022-11-28T21:46:07.564Z,100412.41
2022-11-28T21:48:35.425Z,100415.03
2022-11-28T21:51:04.494Z,100416.84
2022-11-28T21:53:32.597Z,100409.88
2022-11-28T21:56:00.791Z,100413.44
2022-11-28T21:58:28.382Z,100409.06
2022-11-28T22:01:00.484Z,100414.34
2022-11-28T22:03:29.043Z,100406.50
2022-11-28T22:06:04.333Z,100402.16
2022-11-28T22:08:31.554Z,100412.72
2022-11-28T22:11:04.184Z,100413.66
2022-11-28T22:13:32.658Z,100415.41
2022-11-28T22:15:59.531Z,100414.53
2022-11-28T22:18:28.320Z,100411.06
2022-11-28T22:21:22.313Z,100418.03
2022-11-28T22:23:52.793Z,100417.19
2022-11-28T22:26:19.821Z,100420.72
2022-11-28T22:28:53.188Z,100423.44
2022-11-28T22:31:20.619Z,100422.56
2022-11-28T22:33:49.289Z,100422.59
2022-11-28T22:36:19.029Z,100423.50
2022-11-28T22:38:47.722Z,100427.03
2022-11-28T22:41:26.217Z,100424.44
2022-11-28T22:43:56.739Z,100434.97
2022-11-28T22:46:23.795Z,100431.44
2022-11-28T22:48:51.886Z,100431.41
2022-11-28T22:51:22.281Z,100431.41
2022-11-28T22:53:53.494Z,100424.38
2022-11-28T22:56:20.382Z,100427.84
2022-11-28T22:58:47.531Z,100440.09
2022-11-28T23:01:20.998Z,100443.59
2022-11-28T23:03:48.048Z,100435.66
2022-11-28T23:06:17.098Z,100437.34
2022-11-28T23:08:44.469Z,100436.47
2022-11-28T23:11:17.464Z,100441.72
2022-11-28T23:13:47.801Z,100448.69
2022-11-28T23:16:19.324Z,100442.53
2022-11-28T23:18:48.091Z,100439.03
2022-11-28T23:21:15.549Z,100431.97
2022-11-28T23:23:43.959Z,100437.22
2022-11-28T23:26:13.874Z,100436.38
2022-11-28T23:28:41.296Z,100438.09
2022-11-28T23:31:16.275Z,100444.19
2022-11-28T23:33:44.222Z,100439.81
2022-11-28T23:36:22.512Z,100436.31
2022-11-28T23:38:55.187Z,100454.72
2022-11-28T23:41:22.230Z,100448.63
2022-11-28T23:43:49.157Z,100451.31
2022-11-28T23:46:20.032Z,100456.66
2022-11-28T23:48:47.244Z,100454.00
2022-11-28T23:51:15.853Z,100453.19
2022-11-28T23:53:43.694Z,100458.44
2022-11-28T23:56:12.673Z,100456.72
2022-11-28T23:58:39.537Z,100462.91
